SCLR weather

Los Alerces Airport
Chaiten, Los Lagos Region, Chile

Public forecast

Using degrees Celsius for public forecast. Weather courtesy of forecast.io.

METAR (pilot weather report)

Closest report is Chaitén Airport, 9.4 nm (17.5 km) SSW. Retrieved 2019/04/26 09:00 UTC (33 minutes ago):

SCTN 260900Z AUTO 36006KT 330V030 9999 OVC018 11/10 Q1020

TAF (pilot weather forecast)

Forecast is more than 12 hours old.

Closest forecast is Chaitén Airport, 9.4 nm (17.5 km) SSW. Retrieved 2018/09/16 12:33 UTC (7 months ago):

TAF SPJL 161124Z 1612/1712 VRB04KT 9999 FEW020LVA0551 161131 GG KWBCYMYX MPZZMAMX 161130 SCSCYZYX SPCH03 SCTN 161130 SPECI SCTN 161130Z 36020G31KT +RA SCT013 OVC017 11/09 Q1009